createdAt,value
2023-02-19T00:03:18.445Z,99.90
2023-02-19T00:08:20.244Z,99.90
2023-02-19T00:13:22.021Z,99.90
2023-02-19T00:18:24.430Z,99.90
2023-02-19T00:23:27.020Z,99.90
2023-02-19T00:28:28.740Z,99.90
2023-02-19T00:33:30.486Z,99.90
2023-02-19T00:38:35.540Z,99.90
2023-02-19T00:43:37.293Z,99.90
2023-02-19T00:48:39.093Z,99.90
2023-02-19T00:53:41.457Z,99.90
2023-02-19T00:58:43.205Z,99.90
2023-02-19T01:03:45.360Z,99.90
2023-02-19T01:08:47.515Z,99.90
2023-02-19T01:13:49.513Z,99.90
2023-02-19T01:18:51.865Z,99.90
2023-02-19T01:23:54.151Z,99.90
2023-02-19T01:28:55.993Z,99.90
2023-02-19T01:34:01.525Z,99.90
2023-02-19T01:39:05.634Z,99.90
2023-02-19T01:44:18.172Z,99.90
2023-02-19T01:49:41.743Z,99.90
2023-02-19T01:54:45.589Z,99.90
2023-02-19T01:59:50.679Z,99.90
2023-02-19T02:04:52.522Z,99.90
2023-02-19T02:10:12.919Z,99.90
2023-02-19T02:15:16.392Z,99.90
2023-02-19T02:20:37.832Z,99.90
2023-02-19T02:26:17.397Z,99.90
2023-02-19T02:31:43.384Z,99.90
2023-02-19T02:36:49.161Z,99.90
2023-02-19T02:42:14.810Z,99.90
2023-02-19T02:47:36.565Z,99.90
2023-02-19T02:52:59.584Z,99.90
2023-02-19T02:58:02.615Z,99.90
2023-02-19T03:03:05.682Z,99.90
2023-02-19T03:08:16.451Z,99.90
2023-02-19T03:13:51.916Z,99.90
2023-02-19T03:19:15.933Z,99.90
2023-02-19T03:24:39.694Z,99.90
2023-02-19T03:29:43.889Z,99.90
2023-02-19T03:34:52.252Z,99.90
2023-02-19T03:39:54.970Z,99.90
2023-02-19T03:45:05.530Z,99.90
2023-02-19T03:50:29.038Z,99.90
2023-02-19T03:55:50.805Z,99.90
2023-02-19T04:01:00.295Z,99.90
2023-02-19T04:06:06.582Z,99.90
2023-02-19T04:11:09.763Z,99.90
2023-02-19T04:16:28.079Z,99.90
2023-02-19T04:21:33.929Z,99.90
2023-02-19T04:26:35.919Z,99.90
2023-02-19T04:31:38.858Z,99.90
2023-02-19T04:36:40.636Z,99.90
2023-02-19T04:41:42.422Z,99.90
2023-02-19T04:46:44.202Z,99.90
2023-02-19T04:51:45.929Z,99.90
2023-02-19T04:56:47.657Z,99.90
2023-02-19T05:01:49.375Z,99.90
2023-02-19T05:06:51.143Z,99.90
2023-02-19T05:11:52.956Z,99.90
2023-02-19T05:16:54.688Z,99.90
2023-02-19T05:21:56.867Z,99.90
2023-02-19T05:26:58.713Z,99.90
2023-02-19T05:32:00.471Z,99.90
2023-02-19T05:37:03.462Z,99.90
2023-02-19T05:42:05.301Z,99.90
2023-02-19T05:47:07.050Z,99.90
2023-02-19T05:52:08.788Z,99.90
2023-02-19T05:57:10.564Z,99.90
2023-02-19T06:02:12.452Z,99.90
2023-02-19T06:07:14.189Z,99.90
2023-02-19T06:12:15.949Z,99.90
2023-02-19T06:17:17.770Z,99.90
2023-02-19T06:22:19.810Z,99.90
2023-02-19T06:27:21.617Z,99.90
2023-02-19T06:32:23.542Z,99.90
2023-02-19T06:37:25.369Z,99.90
2023-02-19T06:42:27.154Z,99.90
2023-02-19T06:47:34.148Z,99.90
2023-02-19T06:52:35.961Z,99.90
2023-02-19T06:57:37.829Z,99.90
2023-02-19T07:02:39.577Z,99.90
2023-02-19T07:07:41.298Z,99.90
2023-02-19T07:12:43.382Z,99.90
2023-02-19T07:17:45.153Z,99.90
2023-02-19T07:22:46.977Z,99.90
2023-02-19T07:27:48.706Z,99.90
2023-02-19T07:32:50.481Z,98.50
2023-02-19T07:37:52.219Z,91.10
2023-02-19T07:42:54.019Z,76.50
2023-02-19T07:47:55.770Z,77.60
2023-02-19T07:52:57.569Z,84.80
2023-02-19T07:58:00.154Z,92.60
2023-02-19T08:03:03.337Z,95.30
2023-02-19T08:08:10.547Z,81.80
2023-02-19T08:13:25.568Z,87.50
2023-02-19T08:18:28.972Z,91.40
2023-02-19T08:23:30.835Z,93.40
2023-02-19T08:28:33.048Z,92.80
2023-02-19T08:33:35.394Z,93.50
2023-02-19T08:38:37.731Z,94.40
2023-02-19T08:43:41.003Z,94.60
2023-02-19T08:48:42.706Z,94.00
2023-02-19T08:53:44.604Z,92.90
2023-02-19T08:58:47.430Z,94.40
2023-02-19T09:03:49.367Z,92.50
2023-02-19T09:08:51.199Z,92.50
2023-02-19T09:13:55.599Z,93.10
2023-02-19T09:18:57.409Z,92.30
2023-02-19T09:23:59.370Z,92.30
2023-02-19T09:29:01.101Z,92.80
2023-02-19T09:34:02.805Z,93.40
2023-02-19T09:39:07.587Z,94.00
2023-02-19T09:44:13.305Z,94.80
2023-02-19T09:49:19.746Z,94.00
2023-02-19T09:54:27.086Z,95.00
2023-02-19T09:59:35.146Z,95.90
2023-02-19T10:04:40.011Z,95.80
2023-02-19T10:09:42.465Z,94.40
2023-02-19T10:14:48.726Z,94.10
2023-02-19T10:19:52.048Z,95.30
2023-02-19T10:24:56.470Z,95.70
2023-02-19T10:30:00.406Z,94.60
2023-02-19T10:35:16.151Z,95.90
2023-02-19T10:40:26.666Z,96.50
2023-02-19T10:45:28.360Z,97.50
2023-02-19T10:50:46.375Z,96.80
2023-02-19T10:55:48.230Z,96.20
2023-02-19T11:01:27.055Z,99.20
2023-02-19T11:06:29.572Z,99.90
2023-02-19T11:11:40.004Z,99.90
2023-02-19T11:16:45.207Z,99.90
2023-02-19T11:21:47.959Z,99.90
2023-02-19T11:26:50.029Z,99.90
2023-02-19T11:31:51.985Z,99.90
2023-02-19T11:37:12.256Z,99.90
2023-02-19T11:42:34.122Z,99.90
2023-02-19T11:47:57.528Z,99.90
2023-02-19T11:53:27.888Z,99.90
2023-02-19T11:58:55.488Z,99.90
2023-02-19T12:03:59.928Z,99.90
2023-02-19T12:09:13.990Z,99.90
2023-02-19T12:14:53.561Z,99.90
2023-02-19T12:20:07.388Z,99.90
2023-02-19T12:25:34.062Z,99.90
2023-02-19T12:31:04.752Z,99.90
2023-02-19T12:36:32.475Z,99.90
2023-02-19T12:41:58.398Z,99.90
2023-02-19T12:47:02.220Z,99.90
2023-02-19T12:52:10.520Z,99.90
2023-02-19T12:57:26.452Z,99.90
2023-02-19T13:02:44.416Z,99.90
2023-02-19T13:08:04.226Z,99.90
2023-02-19T13:13:12.436Z,99.90
2023-02-19T13:18:22.924Z,99.90
2023-02-19T13:23:55.235Z,99.90
2023-02-19T13:29:14.763Z,99.90
2023-02-19T13:34:52.701Z,99.90
2023-02-19T13:39:56.477Z,99.90
2023-02-19T13:44:59.406Z,99.90
2023-02-19T13:50:06.781Z,99.90
2023-02-19T13:55:42.775Z,99.90
2023-02-19T14:00:51.207Z,99.90
2023-02-19T14:06:08.316Z,99.90
2023-02-19T14:11:14.213Z,99.90
2023-02-19T14:16:41.294Z,99.90
2023-02-19T14:21:43.970Z,99.90
2023-02-19T14:26:45.841Z,99.90
2023-02-19T14:31:47.785Z,99.90
2023-02-19T14:36:52.845Z,99.90
2023-02-19T14:42:06.825Z,99.90
2023-02-19T14:47:14.225Z,99.90
2023-02-19T14:52:30.285Z,99.90
2023-02-19T14:57:38.279Z,99.90
2023-02-19T15:02:43.160Z,99.90
2023-02-19T15:07:45.554Z,99.90
2023-02-19T15:12:54.182Z,99.90
2023-02-19T15:17:57.810Z,99.90
2023-02-19T15:23:00.979Z,99.90
2023-02-19T15:28:27.212Z,99.90
2023-02-19T15:33:28.952Z,99.90
2023-02-19T15:38:31.101Z,99.90
2023-02-19T15:44:00.390Z,99.90
2023-02-19T15:49:16.986Z,99.90
2023-02-19T15:54:27.571Z,99.90
2023-02-19T15:59:36.657Z,99.90
2023-02-19T16:04:39.936Z,99.90
2023-02-19T16:09:41.789Z,99.90
2023-02-19T16:14:43.583Z,99.90
2023-02-19T16:19:56.705Z,99.90
2023-02-19T16:25:05.641Z,99.90
2023-02-19T16:30:25.789Z,99.90
2023-02-19T16:35:40.384Z,99.90
2023-02-19T16:40:48.293Z,99.90
2023-02-19T16:45:50.476Z,99.90
2023-02-19T16:50:52.302Z,99.90
2023-02-19T16:55:54.210Z,99.90
2023-02-19T17:00:56.229Z,99.90
2023-02-19T17:05:58.026Z,99.90
2023-02-19T17:11:02.096Z,99.90
2023-02-19T17:16:04.115Z,99.90
2023-02-19T17:21:14.941Z,99.90
2023-02-19T17:26:22.018Z,99.90
2023-02-19T17:31:24.202Z,99.90
2023-02-19T17:36:31.915Z,99.90
2023-02-19T17:41:33.825Z,99.90
2023-02-19T17:46:36.068Z,99.90
2023-02-19T17:51:37.975Z,99.90
2023-02-19T17:56:43.266Z,99.90
2023-02-19T18:01:46.239Z,99.90
2023-02-19T18:06:48.600Z,99.90
2023-02-19T18:11:50.470Z,99.90
2023-02-19T18:16:52.454Z,99.90
2023-02-19T18:21:54.179Z,99.90
2023-02-19T18:26:55.959Z,99.90
2023-02-19T18:31:57.865Z,99.90
2023-02-19T18:36:59.825Z,99.90
2023-02-19T18:42:02.296Z,99.90
2023-02-19T18:47:04.866Z,99.90
2023-02-19T18:52:07.442Z,99.90
2023-02-19T18:57:09.485Z,99.90
2023-02-19T19:02:12.049Z,99.90
2023-02-19T19:07:13.894Z,99.90
2023-02-19T19:12:16.749Z,99.90
2023-02-19T19:17:18.545Z,99.90
2023-02-19T19:22:22.936Z,99.90
2023-02-19T19:27:24.686Z,99.90
2023-02-19T19:32:26.465Z,99.90
2023-02-19T19:37:29.239Z,99.90
2023-02-19T19:42:31.068Z,99.90
2023-02-19T19:47:33.004Z,99.90
2023-02-19T19:52:34.737Z,99.90
2023-02-19T19:57:38.518Z,99.90
2023-02-19T20:02:42.188Z,99.90
2023-02-19T20:07:44.692Z,99.90
2023-02-19T20:12:46.897Z,99.90
2023-02-19T20:17:49.490Z,99.90
2023-02-19T20:22:52.044Z,99.90
2023-02-19T20:27:54.465Z,99.90
2023-02-19T20:32:56.339Z,99.90
2023-02-19T20:37:58.236Z,99.90
2023-02-19T20:43:01.259Z,99.90
2023-02-19T20:48:03.029Z,99.90
2023-02-19T20:53:04.908Z,99.90
2023-02-19T20:58:06.844Z,99.90
2023-02-19T21:03:09.103Z,99.90
2023-02-19T21:08:11.806Z,99.90
2023-02-19T21:13:13.815Z,99.90
2023-02-19T21:18:16.390Z,99.90
2023-02-19T21:23:18.313Z,99.90
2023-02-19T21:28:20.086Z,99.90
2023-02-19T21:33:22.074Z,99.90
2023-02-19T21:38:24.135Z,99.90
2023-02-19T21:43:26.105Z,99.90
2023-02-19T21:48:27.813Z,99.90
2023-02-19T21:53:29.555Z,99.90
2023-02-19T21:58:31.339Z,99.90
2023-02-19T22:03:33.117Z,99.90
2023-02-19T22:08:34.946Z,99.90
2023-02-19T22:13:36.677Z,99.90
2023-02-19T22:18:38.579Z,99.90
2023-02-19T22:23:43.935Z,99.90
2023-02-19T22:28:47.665Z,99.90
2023-02-19T22:33:50.435Z,99.90
2023-02-19T22:38:52.925Z,99.90
2023-02-19T22:43:56.500Z,99.90
2023-02-19T22:49:02.176Z,99.90
2023-02-19T22:54:04.292Z,99.90
2023-02-19T22:59:06.049Z,99.90
2023-02-19T23:04:07.880Z,99.90
2023-02-19T23:09:19.110Z,99.90
2023-02-19T23:14:22.112Z,99.90
2023-02-19T23:19:23.996Z,99.90
2023-02-19T23:24:26.086Z,99.90
2023-02-19T23:29:29.681Z,99.90
2023-02-19T23:34:31.637Z,99.90
2023-02-19T23:39:33.437Z,99.90
2023-02-19T23:44:35.493Z,99.90
2023-02-19T23:49:37.356Z,99.90
2023-02-19T23:54:39.582Z,99.90
2023-02-19T23:59:41.289Z,99.90
